createdAt,value
2023-02-11T00:00:16.132Z,38.35
2023-02-11T00:01:28.889Z,30.75
2023-02-11T00:02:32.030Z,27.05
2023-02-11T00:03:33.864Z,36.47
2023-02-11T00:04:35.640Z,35.05
2023-02-11T00:05:37.501Z,37.03
2023-02-11T00:06:39.347Z,36.03
2023-02-11T00:07:40.976Z,35.50
2023-02-11T00:08:42.995Z,37.83
2023-02-11T00:09:44.730Z,32.80
2023-02-11T00:10:46.370Z,31.98
2023-02-11T00:11:48.091Z,36.30
2023-02-11T00:12:49.806Z,37.00
2023-02-11T00:13:51.877Z,35.25
2023-02-11T00:14:53.614Z,29.05
2023-02-11T00:15:55.573Z,33.08
2023-02-11T00:16:57.360Z,35.15
2023-02-11T00:17:59.022Z,32.75
2023-02-11T00:19:01.951Z,37.37
2023-02-11T00:20:05.991Z,30.60
2023-02-11T00:21:15.036Z,33.70
2023-02-11T00:22:16.829Z,32.00
2023-02-11T00:23:19.192Z,31.67
2023-02-11T00:24:20.936Z,38.42
2023-02-11T00:25:22.668Z,39.90
2023-02-11T00:26:27.959Z,39.03
2023-02-11T00:27:29.665Z,36.60
2023-02-11T00:28:31.426Z,31.88
2023-02-11T00:29:33.201Z,34.80
2023-02-11T00:30:35.146Z,30.95
2023-02-11T00:31:37.071Z,33.47
2023-02-11T00:32:38.862Z,30.95
2023-02-11T00:33:40.641Z,39.03
2023-02-11T00:34:42.419Z,35.08
2023-02-11T00:35:44.137Z,33.05
2023-02-11T00:36:45.772Z,37.08
2023-02-11T00:37:47.450Z,35.03
2023-02-11T00:38:51.089Z,40.17
2023-02-11T00:39:52.887Z,34.10
2023-02-11T00:40:54.762Z,32.05
2023-02-11T00:41:57.212Z,30.27
2023-02-11T00:42:58.920Z,30.95
2023-02-11T00:44:01.751Z,29.55
2023-02-11T00:45:04.093Z,29.52
2023-02-11T00:46:06.930Z,35.72
2023-02-11T00:47:08.711Z,33.40
2023-02-11T00:48:10.403Z,27.60
2023-02-11T00:49:12.170Z,27.38
2023-02-11T00:50:14.023Z,29.13
2023-02-11T00:51:15.792Z,25.20
2023-02-11T00:52:17.511Z,24.92
2023-02-11T00:53:19.270Z,26.20
2023-02-11T00:54:20.953Z,24.08
2023-02-11T00:55:22.709Z,20.08
2023-02-11T00:56:24.689Z,23.65
2023-02-11T00:57:26.394Z,21.15
2023-02-11T00:58:28.466Z,18.55
2023-02-11T00:59:30.239Z,13.55
2023-02-11T01:00:32.024Z,13.10
2023-02-11T01:01:33.884Z,12.02
2023-02-11T01:02:35.604Z,16.73
2023-02-11T01:03:37.228Z,20.85
2023-02-11T01:04:38.961Z,20.30
2023-02-11T01:05:40.807Z,12.00
2023-02-11T01:06:42.543Z,12.75
2023-02-11T01:07:44.648Z,15.10
2023-02-11T01:08:46.372Z,15.07
2023-02-11T01:09:48.054Z,8.82
2023-02-11T01:11:06.550Z,12.23
2023-02-11T01:12:08.181Z,10.05
2023-02-11T01:13:10.340Z,13.05
2023-02-11T01:14:12.105Z,13.57
2023-02-11T01:15:17.988Z,12.70
2023-02-11T01:16:20.646Z,10.25
2023-02-11T01:17:22.374Z,9.88
2023-02-11T01:18:24.542Z,11.57
2023-02-11T01:19:26.263Z,12.63
2023-02-11T01:20:29.320Z,12.90
2023-02-11T01:21:31.063Z,13.17
2023-02-11T01:22:32.994Z,10.68
2023-02-11T01:23:34.699Z,10.85
2023-02-11T01:24:36.432Z,12.07
2023-02-11T01:25:38.158Z,10.73
2023-02-11T01:26:39.942Z,11.13
2023-02-11T01:27:41.744Z,13.73
2023-02-11T01:28:43.627Z,9.80
2023-02-11T01:29:45.263Z,10.18
2023-02-11T01:30:47.041Z,9.35
2023-02-11T01:31:48.901Z,13.30
2023-02-11T01:32:50.758Z,10.45
2023-02-11T01:33:53.185Z,13.30
2023-02-11T01:34:55.122Z,11.50
2023-02-11T01:36:01.478Z,10.38
2023-02-11T01:37:03.156Z,12.38
2023-02-11T01:38:04.875Z,9.93
2023-02-11T01:39:06.804Z,14.20
2023-02-11T01:40:14.889Z,12.75
2023-02-11T01:41:16.631Z,11.05
2023-02-11T01:42:21.252Z,10.57
2023-02-11T01:43:24.617Z,13.43
2023-02-11T01:44:31.786Z,12.15
2023-02-11T01:45:45.660Z,9.75
2023-02-11T01:46:47.376Z,9.05
2023-02-11T01:47:49.137Z,11.93
2023-02-11T01:48:55.283Z,14.40
2023-02-11T01:50:02.138Z,13.27
2023-02-11T01:51:18.520Z,11.35
2023-02-11T01:52:23.448Z,9.15
2023-02-11T01:53:25.955Z,10.10
2023-02-11T01:54:32.932Z,10.27
2023-02-11T01:55:34.644Z,12.18
2023-02-11T01:56:42.385Z,16.98
2023-02-11T01:57:47.559Z,16.85
2023-02-11T01:58:51.741Z,11.75
2023-02-11T02:00:14.374Z,13.07
2023-02-11T02:01:23.123Z,12.13
2023-02-11T02:03:03.250Z,15.20
2023-02-11T02:04:06.926Z,14.65
2023-02-11T02:05:17.776Z,13.67
2023-02-11T02:06:34.537Z,11.63
2023-02-11T02:08:10.892Z,9.68
2023-02-11T02:09:37.884Z,10.27
2023-02-11T02:10:43.699Z,8.52
2023-02-11T02:11:45.418Z,13.60
2023-02-11T02:13:17.782Z,8.82
2023-02-11T02:14:19.592Z,7.88
2023-02-11T02:15:34.484Z,9.63
2023-02-11T02:16:37.646Z,10.13
2023-02-11T02:17:55.664Z,12.70
2023-02-11T02:19:18.825Z,8.00
2023-02-11T02:20:52.858Z,12.00
2023-02-11T02:22:12.638Z,12.38
2023-02-11T02:23:17.227Z,5.15
2023-02-11T02:24:47.482Z,6.88
2023-02-11T02:26:34.359Z,7.88
2023-02-11T02:27:35.920Z,6.07
2023-02-11T02:29:21.020Z,9.75
2023-02-11T02:30:50.375Z,5.28
2023-02-11T02:32:22.781Z,7.47
2023-02-11T02:34:06.589Z,8.93
2023-02-11T02:35:26.800Z,5.95
2023-02-11T02:36:45.430Z,7.57
2023-02-11T02:38:04.905Z,6.70
2023-02-11T02:39:12.046Z,10.30
2023-02-11T02:40:23.583Z,8.20
2023-02-11T02:41:34.214Z,11.50
2023-02-11T02:42:36.854Z,10.95
2023-02-11T02:43:46.036Z,11.13
2023-02-11T02:44:52.328Z,11.47
2023-02-11T02:45:54.075Z,8.95
2023-02-11T02:46:55.802Z,12.48
2023-02-11T02:47:58.310Z,14.25
2023-02-11T02:49:01.140Z,10.15
2023-02-11T02:50:05.026Z,12.30
2023-02-11T02:51:14.097Z,13.80
2023-02-11T02:52:33.818Z,8.63
2023-02-11T02:53:53.190Z,11.73
2023-02-11T02:55:13.176Z,12.52
2023-02-11T02:56:25.940Z,14.03
2023-02-11T02:58:07.737Z,22.77
2023-02-11T02:59:15.105Z,10.48
2023-02-11T03:00:47.731Z,14.23
2023-02-11T03:02:14.089Z,16.60
2023-02-11T03:03:36.794Z,13.10
2023-02-11T03:05:00.623Z,16.65
2023-02-11T03:06:15.674Z,15.60
2023-02-11T03:07:38.068Z,12.95
2023-02-11T03:09:00.001Z,17.08
2023-02-11T03:10:11.553Z,14.03
2023-02-11T03:11:17.272Z,10.90
2023-02-11T03:12:20.549Z,19.00
2023-02-11T03:13:28.169Z,17.38
2023-02-11T03:14:32.319Z,13.85
2023-02-11T03:15:39.340Z,12.98
2023-02-11T03:16:43.533Z,12.80
2023-02-11T03:17:49.592Z,14.68
2023-02-11T03:19:03.236Z,12.65
2023-02-11T03:20:07.095Z,17.90
2023-02-11T03:21:10.422Z,17.27
2023-02-11T03:22:20.079Z,16.83
2023-02-11T03:23:42.011Z,15.35
2023-02-11T03:24:45.313Z,14.85
2023-02-11T03:25:58.738Z,18.02
2023-02-11T03:27:18.144Z,19.70
2023-02-11T03:28:33.505Z,17.95
2023-02-11T03:29:43.934Z,18.15
2023-02-11T03:31:00.401Z,17.48
2023-02-11T03:32:09.260Z,21.10
2023-02-11T03:33:26.648Z,22.17
2023-02-11T03:34:36.571Z,18.92
2023-02-11T03:36:04.510Z,21.20
2023-02-11T03:37:14.236Z,24.58
2023-02-11T03:38:24.440Z,22.45
2023-02-11T03:39:33.374Z,21.13
2023-02-11T03:40:41.188Z,29.90
2023-02-11T03:41:43.917Z,20.05
2023-02-11T03:42:59.986Z,20.13
2023-02-11T03:44:02.865Z,23.02
2023-02-11T03:45:14.347Z,19.73
2023-02-11T03:46:19.584Z,17.90
2023-02-11T03:47:26.685Z,17.85
2023-02-11T03:48:33.388Z,24.45
2023-02-11T03:49:38.328Z,20.90
2023-02-11T03:50:41.943Z,17.85
2023-02-11T03:51:44.163Z,21.75
2023-02-11T03:52:47.161Z,17.52
2023-02-11T03:53:52.931Z,16.10
2023-02-11T03:54:57.957Z,16.63
2023-02-11T03:56:05.307Z,14.27
2023-02-11T03:57:07.029Z,15.68
2023-02-11T03:58:09.341Z,19.15
2023-02-11T03:59:11.035Z,13.30
2023-02-11T04:00:14.048Z,15.48
2023-02-11T04:01:16.225Z,11.77
2023-02-11T04:02:18.242Z,18.85
2023-02-11T04:03:19.950Z,16.17
2023-02-11T04:04:21.826Z,11.63
2023-02-11T04:05:23.588Z,11.40
2023-02-11T04:06:25.368Z,13.07
2023-02-11T04:07:27.546Z,12.13
2023-02-11T04:08:29.211Z,16.30
2023-02-11T04:09:30.910Z,13.90
2023-02-11T04:10:32.953Z,8.98
2023-02-11T04:11:34.632Z,10.50
2023-02-11T04:12:36.314Z,8.98
2023-02-11T04:13:38.009Z,12.95
2023-02-11T04:14:39.726Z,7.57
2023-02-11T04:15:41.354Z,9.80
2023-02-11T04:16:43.014Z,12.67
2023-02-11T04:17:44.848Z,13.73
2023-02-11T04:18:46.545Z,11.20
2023-02-11T04:19:48.312Z,10.95
2023-02-11T04:20:51.113Z,10.90
2023-02-11T04:21:52.883Z,10.95
2023-02-11T04:22:54.616Z,13.00
2023-02-11T04:23:56.267Z,14.00
2023-02-11T04:24:58.080Z,9.80
2023-02-11T04:25:59.819Z,9.00
2023-02-11T04:27:01.931Z,11.50
2023-02-11T04:28:03.737Z,12.43
2023-02-11T04:29:05.486Z,12.68
2023-02-11T04:30:09.674Z,10.93
2023-02-11T04:31:11.362Z,8.52
2023-02-11T04:32:13.409Z,9.15
2023-02-11T04:33:15.109Z,12.27
2023-02-11T04:34:16.946Z,11.63
2023-02-11T04:35:18.707Z,10.38
2023-02-11T04:36:20.375Z,10.80
2023-02-11T04:37:22.020Z,13.33
2023-02-11T04:38:23.735Z,11.30
2023-02-11T04:39:25.421Z,14.23
2023-02-11T04:40:27.184Z,10.98
2023-02-11T04:41:28.845Z,10.82
2023-02-11T04:42:30.993Z,10.15
2023-02-11T04:43:32.718Z,9.13
2023-02-11T04:44:34.415Z,12.18
2023-02-11T04:45:36.183Z,12.95
2023-02-11T04:46:37.960Z,17.10
2023-02-11T04:47:39.632Z,14.07
2023-02-11T04:48:41.250Z,9.48
2023-02-11T04:49:42.969Z,10.20
2023-02-11T04:50:44.723Z,9.15
2023-02-11T04:51:48.998Z,12.60
2023-02-11T04:52:51.135Z,8.43
2023-02-11T04:53:52.851Z,11.80
2023-02-11T04:54:54.492Z,9.65
2023-02-11T04:55:56.222Z,13.55
2023-02-11T04:56:57.932Z,10.18
2023-02-11T04:57:59.616Z,9.53
2023-02-11T04:59:01.318Z,16.15
2023-02-11T05:00:03.527Z,11.30
2023-02-11T05:01:13.650Z,12.85
2023-02-11T05:02:15.310Z,12.60
2023-02-11T05:03:17.037Z,13.90
2023-02-11T05:04:19.142Z,13.85
2023-02-11T05:05:20.898Z,10.48
2023-02-11T05:06:22.769Z,13.45
2023-02-11T05:07:24.517Z,11.05
2023-02-11T05:08:26.162Z,13.07
2023-02-11T05:09:27.846Z,12.73
2023-02-11T05:10:29.524Z,12.18
2023-02-11T05:11:31.398Z,13.05
2023-02-11T05:12:33.074Z,9.25
2023-02-11T05:13:34.752Z,7.72
2023-02-11T05:14:36.421Z,8.82
2023-02-11T05:15:38.093Z,8.77
2023-02-11T05:16:39.838Z,8.45
2023-02-11T05:17:41.593Z,6.63
2023-02-11T05:18:44.434Z,8.17
2023-02-11T05:19:46.096Z,7.82
2023-02-11T05:20:47.943Z,9.45
2023-02-11T05:22:01.719Z,11.10
2023-02-11T05:23:04.616Z,6.88
2023-02-11T05:24:06.909Z,9.93
2023-02-11T05:25:08.747Z,15.30
2023-02-11T05:26:11.048Z,6.05
2023-02-11T05:27:12.746Z,13.13
2023-02-11T05:28:14.511Z,12.05
2023-02-11T05:29:16.255Z,11.70
2023-02-11T05:30:17.918Z,10.20
2023-02-11T05:31:19.723Z,8.93
2023-02-11T05:32:21.388Z,8.27
2023-02-11T05:33:23.213Z,8.52
2023-02-11T05:34:24.957Z,8.95
2023-02-11T05:35:26.615Z,10.95
2023-02-11T05:36:28.282Z,9.93
2023-02-11T05:37:30.062Z,8.73
2023-02-11T05:38:31.855Z,6.88
2023-02-11T05:39:33.551Z,8.67
2023-02-11T05:40:35.250Z,9.68
2023-02-11T05:41:36.959Z,6.63
2023-02-11T05:42:38.651Z,14.38
2023-02-11T05:43:40.320Z,7.30
2023-02-11T05:44:42.018Z,13.82
2023-02-11T05:45:43.641Z,10.02
2023-02-11T05:46:45.406Z,10.63
2023-02-11T05:47:47.170Z,15.45
2023-02-11T05:48:48.848Z,22.17
2023-02-11T05:49:51.301Z,15.50
2023-02-11T05:50:53.107Z,13.68
2023-02-11T05:51:54.774Z,20.40
2023-02-11T05:52:56.464Z,44.10
2023-02-11T05:53:58.360Z,36.53
2023-02-11T05:55:00.016Z,61.05
2023-02-11T05:56:02.096Z,74.88
2023-02-11T05:57:04.161Z,67.93
2023-02-11T05:58:07.327Z,57.42
2023-02-11T05:59:09.066Z,60.45
2023-02-11T06:00:11.590Z,65.50
2023-02-11T06:01:13.291Z,56.08
2023-02-11T06:02:15.677Z,38.78
2023-02-11T06:03:17.435Z,20.40
2023-02-11T06:04:19.145Z,15.75
2023-02-11T06:05:20.817Z,16.05
2023-02-11T06:06:22.574Z,16.75
2023-02-11T06:07:24.204Z,13.55
2023-02-11T06:08:25.951Z,17.88
2023-02-11T06:09:27.854Z,10.07
2023-02-11T06:10:29.559Z,7.13
2023-02-11T06:11:31.401Z,10.40
2023-02-11T06:12:33.087Z,12.20
2023-02-11T06:13:35.817Z,8.82
2023-02-11T06:14:37.584Z,10.13
2023-02-11T06:15:39.830Z,11.07
2023-02-11T06:16:41.532Z,9.43
2023-02-11T06:17:43.173Z,10.93
2023-02-11T06:18:44.923Z,11.88
2023-02-11T06:19:46.618Z,8.98
2023-02-11T06:20:48.311Z,15.00
2023-02-11T06:21:49.981Z,13.00
2023-02-11T06:22:51.618Z,9.63
2023-02-11T06:23:53.324Z,9.65
2023-02-11T06:25:01.571Z,12.20
2023-02-11T06:26:09.057Z,7.03
2023-02-11T06:27:10.748Z,12.27
2023-02-11T06:28:12.696Z,13.73
2023-02-11T06:29:14.554Z,13.75
2023-02-11T06:30:16.228Z,8.52
2023-02-11T06:31:18.166Z,10.17
2023-02-11T06:32:39.550Z,10.20
2023-02-11T06:33:42.304Z,8.02
2023-02-11T06:34:44.019Z,8.90
2023-02-11T06:35:45.697Z,10.48
2023-02-11T06:36:47.318Z,9.43
2023-02-11T06:37:49.014Z,14.57
2023-02-11T06:38:51.238Z,19.63
2023-02-11T06:39:52.967Z,13.07
2023-02-11T06:40:54.877Z,18.98
2023-02-11T06:41:56.587Z,38.73
2023-02-11T06:42:58.220Z,40.28
2023-02-11T06:43:59.878Z,28.85
2023-02-11T06:45:01.586Z,26.77
2023-02-11T06:46:03.347Z,28.35
2023-02-11T06:47:05.196Z,22.35
2023-02-11T06:48:06.886Z,21.15
2023-02-11T06:49:08.637Z,24.02
2023-02-11T06:50:13.861Z,20.80
2023-02-11T06:51:15.638Z,34.30
2023-02-11T06:52:17.585Z,30.10
2023-02-11T06:53:19.274Z,30.33
2023-02-11T06:54:21.026Z,20.75
2023-02-11T06:55:22.801Z,28.77
2023-02-11T06:56:25.005Z,21.38
2023-02-11T06:57:26.659Z,15.95
2023-02-11T06:58:28.358Z,15.75
2023-02-11T06:59:30.014Z,16.58
2023-02-11T07:00:31.805Z,11.65
2023-02-11T07:01:33.590Z,13.68
2023-02-11T07:02:36.330Z,14.37
2023-02-11T07:03:40.987Z,12.30
2023-02-11T07:04:42.698Z,12.50
2023-02-11T07:05:44.450Z,13.40
2023-02-11T07:06:46.178Z,11.30
2023-02-11T07:07:47.829Z,15.10
2023-02-11T07:08:49.760Z,12.38
2023-02-11T07:09:51.457Z,12.85
2023-02-11T07:10:53.210Z,15.85
2023-02-11T07:11:54.925Z,15.68
2023-02-11T07:12:58.704Z,14.60
2023-02-11T07:14:03.562Z,19.58
2023-02-11T07:15:05.911Z,13.05
2023-02-11T07:16:09.480Z,12.07
2023-02-11T07:17:11.192Z,12.57
2023-02-11T07:18:14.693Z,13.35
2023-02-11T07:19:16.563Z,12.63
2023-02-11T07:20:18.339Z,13.65
2023-02-11T07:21:22.362Z,14.65
2023-02-11T07:22:24.139Z,13.80
2023-02-11T07:23:25.834Z,16.47
2023-02-11T07:24:27.496Z,16.55
2023-02-11T07:25:29.118Z,33.28
2023-02-11T07:26:30.747Z,22.88
2023-02-11T07:27:32.515Z,26.45
2023-02-11T07:28:35.795Z,19.05
2023-02-11T07:29:37.542Z,21.45
2023-02-11T07:30:39.210Z,19.90
2023-02-11T07:31:40.992Z,20.50
2023-02-11T07:32:42.824Z,19.50
2023-02-11T07:33:44.792Z,24.63
2023-02-11T07:34:46.552Z,25.55
2023-02-11T07:35:48.404Z,18.65
2023-02-11T07:36:50.283Z,28.20
2023-02-11T07:37:51.995Z,22.08
2023-02-11T07:38:53.850Z,21.35
2023-02-11T07:39:55.530Z,22.42
2023-02-11T07:41:00.849Z,27.02
2023-02-11T07:42:04.002Z,21.98
2023-02-11T07:43:05.737Z,24.80
2023-02-11T07:44:07.472Z,24.40
2023-02-11T07:45:09.510Z,20.73
2023-02-11T07:46:14.614Z,22.90
2023-02-11T07:47:16.378Z,26.10
2023-02-11T07:48:18.067Z,23.83
2023-02-11T07:49:19.730Z,24.98
2023-02-11T07:50:21.410Z,20.92
2023-02-11T07:51:28.184Z,23.58
2023-02-11T07:52:30.920Z,22.02
2023-02-11T07:53:32.629Z,21.70
2023-02-11T07:54:34.324Z,21.20
2023-02-11T07:55:35.996Z,29.50
2023-02-11T07:56:37.699Z,26.90
2023-02-11T07:57:39.450Z,21.13
2023-02-11T07:58:41.517Z,23.05
2023-02-11T07:59:43.153Z,22.17
2023-02-11T08:00:44.855Z,25.20
2023-02-11T08:01:46.623Z,30.48
2023-02-11T08:02:48.294Z,28.13
2023-02-11T08:03:50.041Z,26.27
2023-02-11T08:04:51.728Z,31.10
2023-02-11T08:05:53.557Z,28.00
2023-02-11T08:06:57.831Z,28.85
2023-02-11T08:08:00.694Z,29.40
2023-02-11T08:09:07.774Z,22.83
2023-02-11T08:10:09.704Z,31.35
2023-02-11T08:11:28.965Z,28.50
2023-02-11T08:12:30.766Z,27.05
2023-02-11T08:13:32.419Z,24.73
2023-02-11T08:14:34.095Z,25.98
2023-02-11T08:15:35.717Z,31.80
2023-02-11T08:16:38.030Z,25.40
2023-02-11T08:17:39.750Z,28.58
2023-02-11T08:18:41.472Z,27.83
2023-02-11T08:19:43.328Z,27.75
2023-02-11T08:20:45.036Z,24.92
2023-02-11T08:21:46.742Z,28.63
2023-02-11T08:22:48.450Z,28.98
2023-02-11T08:23:50.444Z,24.88
2023-02-11T08:24:52.515Z,24.10
2023-02-11T08:25:54.336Z,27.83
2023-02-11T08:26:56.061Z,24.23
2023-02-11T08:27:58.304Z,26.08
2023-02-11T08:29:01.547Z,30.95
2023-02-11T08:30:03.658Z,25.65
2023-02-11T08:31:07.281Z,24.40
2023-02-11T08:32:09.180Z,22.58
2023-02-11T08:33:10.940Z,25.23
2023-02-11T08:34:13.634Z,25.85
2023-02-11T08:35:15.428Z,22.33
2023-02-11T08:36:25.443Z,28.50
2023-02-11T08:37:27.183Z,25.92
2023-02-11T08:38:28.927Z,26.58
2023-02-11T08:39:31.521Z,24.85
2023-02-11T08:40:33.232Z,23.70
2023-02-11T08:41:35.766Z,22.95
2023-02-11T08:42:37.435Z,26.63
2023-02-11T08:43:39.162Z,26.05
2023-02-11T08:44:41.302Z,24.67
2023-02-11T08:45:43.052Z,22.33
2023-02-11T08:46:44.746Z,26.83
2023-02-11T08:47:46.415Z,26.75
2023-02-11T08:48:48.307Z,28.30
2023-02-11T08:49:50.145Z,45.20
2023-02-11T08:50:52.114Z,28.20
2023-02-11T08:51:53.997Z,29.58
2023-02-11T08:52:55.722Z,28.50
2023-02-11T08:53:58.082Z,21.73
2023-02-11T08:54:59.888Z,27.15
2023-02-11T08:56:01.780Z,28.17
2023-02-11T08:57:04.142Z,20.97
2023-02-11T08:58:05.905Z,23.95
2023-02-11T08:59:08.238Z,29.65
2023-02-11T09:00:10.651Z,25.38
2023-02-11T09:01:23.099Z,26.92
2023-02-11T09:02:24.898Z,21.67
2023-02-11T09:03:26.635Z,26.33
2023-02-11T09:04:28.402Z,23.05
2023-02-11T09:05:30.189Z,27.58
2023-02-11T09:06:32.120Z,28.27
2023-02-11T09:07:33.828Z,25.13
2023-02-11T09:08:37.490Z,23.08
2023-02-11T09:09:39.193Z,19.27
2023-02-11T09:10:40.940Z,26.90
2023-02-11T09:11:44.411Z,23.38
2023-02-11T09:12:46.219Z,23.10
2023-02-11T09:13:48.202Z,22.08
2023-02-11T09:14:49.899Z,26.92
2023-02-11T09:15:51.639Z,28.52
2023-02-11T09:16:54.044Z,27.65
2023-02-11T09:17:56.459Z,30.53
2023-02-11T09:18:59.442Z,21.70
2023-02-11T09:20:01.250Z,26.23
2023-02-11T09:21:09.387Z,26.67
2023-02-11T09:22:11.184Z,27.73
2023-02-11T09:23:12.868Z,28.80
2023-02-11T09:24:14.634Z,28.05
2023-02-11T09:25:16.444Z,25.83
2023-02-11T09:26:44.360Z,27.35
2023-02-11T09:27:46.436Z,29.42
2023-02-11T09:28:48.626Z,26.37
2023-02-11T09:29:50.382Z,29.52
2023-02-11T09:30:52.304Z,25.10
2023-02-11T09:31:54.412Z,26.08
2023-02-11T09:32:56.215Z,31.85
2023-02-11T09:34:01.177Z,27.58
2023-02-11T09:35:02.912Z,28.48
2023-02-11T09:36:06.212Z,25.45
2023-02-11T09:37:07.881Z,26.05
2023-02-11T09:38:09.669Z,26.85
2023-02-11T09:39:20.342Z,28.00
2023-02-11T09:40:22.887Z,28.52
2023-02-11T09:41:24.529Z,26.88
2023-02-11T09:42:37.923Z,27.67
2023-02-11T09:43:46.648Z,27.58
2023-02-11T09:44:48.896Z,27.67
2023-02-11T09:45:53.844Z,29.23
2023-02-11T09:47:01.504Z,30.88
2023-02-11T09:48:33.730Z,34.97
2023-02-11T09:49:42.859Z,28.75
2023-02-11T09:50:55.709Z,22.53
2023-02-11T09:52:12.531Z,23.25
2023-02-11T09:53:20.216Z,26.33
2023-02-11T09:54:49.020Z,23.17
2023-02-11T09:56:02.197Z,28.80
2023-02-11T09:57:04.764Z,24.27
2023-02-11T09:58:15.258Z,25.73
2023-02-11T09:59:17.662Z,21.30
2023-02-11T10:00:28.522Z,24.85
2023-02-11T10:01:40.220Z,22.52
2023-02-11T10:02:50.636Z,27.70
2023-02-11T10:04:20.453Z,21.85
2023-02-11T10:05:24.798Z,20.70
2023-02-11T10:06:29.004Z,22.80
2023-02-11T10:08:05.357Z,24.75
2023-02-11T10:09:26.182Z,21.80
2023-02-11T10:10:45.320Z,21.52
2023-02-11T10:11:58.195Z,23.15
2023-02-11T10:13:12.073Z,20.30
2023-02-11T10:14:55.085Z,24.55
2023-02-11T10:16:28.332Z,23.00
2023-02-11T10:17:45.654Z,26.98
2023-02-11T10:18:50.094Z,20.35
2023-02-11T10:20:20.965Z,21.15
2023-02-11T10:21:45.173Z,22.42
2023-02-11T10:22:54.762Z,24.40
2023-02-11T10:24:00.575Z,17.38
2023-02-11T10:25:32.416Z,19.80
2023-02-11T10:26:37.008Z,20.92
2023-02-11T10:27:38.718Z,17.85
2023-02-11T10:28:44.290Z,18.97
2023-02-11T10:30:01.279Z,23.40
2023-02-11T10:31:08.553Z,22.42
2023-02-11T10:32:47.864Z,17.58
2023-02-11T10:34:11.623Z,10.63
2023-02-11T10:35:17.318Z,16.73
2023-02-11T10:36:21.143Z,22.52
2023-02-11T10:37:22.913Z,20.08
2023-02-11T10:38:25.215Z,14.88
2023-02-11T10:39:28.188Z,19.13
2023-02-11T10:40:31.623Z,19.10
2023-02-11T10:41:38.257Z,23.40
2023-02-11T10:42:42.275Z,19.98
2023-02-11T10:43:43.959Z,16.65
2023-02-11T10:45:04.718Z,19.95
2023-02-11T10:46:06.599Z,16.23
2023-02-11T10:47:22.538Z,16.25
2023-02-11T10:48:43.478Z,19.23
2023-02-11T10:49:47.006Z,16.70
2023-02-11T10:50:48.936Z,19.73
2023-02-11T10:52:10.406Z,18.80
2023-02-11T10:53:18.344Z,17.92
2023-02-11T10:54:20.012Z,21.92
2023-02-11T10:55:26.714Z,17.45
2023-02-11T10:56:29.165Z,17.23
2023-02-11T10:57:35.095Z,19.15
2023-02-11T10:58:44.091Z,21.27
2023-02-11T10:59:45.925Z,17.83
2023-02-11T11:00:53.213Z,17.98
2023-02-11T11:01:59.763Z,16.45
2023-02-11T11:03:02.693Z,25.20
2023-02-11T11:04:04.593Z,23.85
2023-02-11T11:05:19.948Z,24.73
2023-02-11T11:06:35.354Z,22.13
2023-02-11T11:07:37.422Z,27.52
2023-02-11T11:08:41.688Z,21.48
2023-02-11T11:09:51.651Z,19.75
2023-02-11T11:11:08.377Z,15.93
2023-02-11T11:12:39.670Z,23.92
2023-02-11T11:13:54.151Z,17.05
2023-02-11T11:14:58.755Z,18.73
2023-02-11T11:16:12.640Z,19.95
2023-02-11T11:17:19.245Z,30.08
2023-02-11T11:18:23.262Z,15.20
2023-02-11T11:19:26.269Z,13.70
2023-02-11T11:20:30.795Z,19.75
2023-02-11T11:21:41.522Z,17.42
2023-02-11T11:22:44.079Z,15.88
2023-02-11T11:23:55.728Z,16.35
2023-02-11T11:24:57.533Z,15.10
2023-02-11T11:26:06.327Z,15.67
2023-02-11T11:27:17.520Z,19.33
2023-02-11T11:28:24.128Z,19.25
2023-02-11T11:29:39.627Z,17.52
2023-02-11T11:30:43.338Z,14.93
2023-02-11T11:31:55.824Z,19.92
2023-02-11T11:32:58.468Z,17.83
2023-02-11T11:34:13.203Z,19.40
2023-02-11T11:35:28.298Z,16.48
2023-02-11T11:36:39.542Z,13.18
2023-02-11T11:37:42.100Z,18.40
2023-02-11T11:38:49.260Z,19.92
2023-02-11T11:40:07.976Z,16.02
2023-02-11T11:41:32.737Z,16.60
2023-02-11T11:42:37.529Z,13.70
2023-02-11T11:43:39.337Z,14.73
2023-02-11T11:44:41.126Z,15.05
2023-02-11T11:46:00.160Z,19.73
2023-02-11T11:47:25.367Z,17.33
2023-02-11T11:48:42.431Z,15.88
2023-02-11T11:50:05.998Z,16.90
2023-02-11T11:51:12.127Z,17.15
2023-02-11T11:52:32.038Z,17.25
2023-02-11T11:53:36.447Z,16.23
2023-02-11T11:54:40.275Z,16.67
2023-02-11T11:56:16.356Z,14.90
2023-02-11T11:57:22.268Z,12.77
2023-02-11T11:58:24.222Z,13.27
2023-02-11T11:59:25.926Z,15.07
2023-02-11T12:00:48.159Z,15.23
2023-02-11T12:02:27.157Z,16.10
2023-02-11T12:03:45.199Z,15.93
2023-02-11T12:05:22.647Z,14.65
2023-02-11T12:06:26.914Z,14.23
2023-02-11T12:07:46.494Z,15.90
2023-02-11T12:09:06.535Z,17.67
2023-02-11T12:10:35.627Z,12.43
2023-02-11T12:11:49.560Z,15.82
2023-02-11T12:13:26.385Z,17.70
2023-02-11T12:14:59.935Z,14.30
2023-02-11T12:16:09.661Z,13.37
2023-02-11T12:17:31.688Z,18.25
2023-02-11T12:18:49.266Z,16.00
2023-02-11T12:19:55.336Z,12.68
2023-02-11T12:20:59.986Z,13.10
2023-02-11T12:22:20.111Z,15.15
2023-02-11T12:23:33.889Z,13.32
2023-02-11T12:24:46.031Z,11.60
2023-02-11T12:25:54.362Z,15.50
2023-02-11T12:27:33.144Z,16.58
2023-02-11T12:29:04.698Z,15.40
2023-02-11T12:30:26.996Z,14.48
2023-02-11T12:31:59.806Z,15.52
2023-02-11T12:33:16.169Z,12.25
2023-02-11T12:34:38.346Z,14.88
2023-02-11T12:36:14.965Z,8.82
2023-02-11T12:37:27.152Z,15.13
2023-02-11T12:38:47.658Z,14.82
2023-02-11T12:40:13.039Z,16.33
2023-02-11T12:41:37.885Z,10.88
2023-02-11T12:43:22.296Z,16.70
2023-02-11T12:44:32.939Z,6.95
2023-02-11T12:46:11.256Z,14.77
2023-02-11T12:47:18.578Z,13.50
2023-02-11T12:48:44.709Z,11.15
2023-02-11T12:49:58.768Z,14.35
2023-02-11T12:51:00.894Z,18.55
2023-02-11T12:52:02.544Z,13.40
2023-02-11T12:53:15.996Z,13.70
2023-02-11T12:54:48.786Z,17.20
2023-02-11T12:55:57.904Z,13.87
2023-02-11T12:57:17.730Z,12.32
2023-02-11T12:58:29.697Z,16.08
2023-02-11T12:59:58.849Z,13.00
2023-02-11T13:01:29.811Z,14.73
2023-02-11T13:02:59.957Z,16.80
2023-02-11T13:04:18.038Z,14.98
2023-02-11T13:05:41.111Z,18.58
2023-02-11T13:06:51.158Z,12.48
2023-02-11T13:07:59.367Z,15.20
2023-02-11T13:09:04.490Z,12.33
2023-02-11T13:10:46.985Z,13.27
2023-02-11T13:11:55.044Z,15.30
2023-02-11T13:12:58.840Z,13.52
2023-02-11T13:14:06.600Z,15.60
2023-02-11T13:15:14.401Z,13.68
2023-02-11T13:16:48.515Z,15.27
2023-02-11T13:18:06.173Z,11.88
2023-02-11T13:19:14.089Z,12.13
2023-02-11T13:20:45.453Z,15.80
2023-02-11T13:22:13.400Z,12.43
2023-02-11T13:23:26.338Z,12.55
2023-02-11T13:24:53.283Z,13.00
2023-02-11T13:26:02.752Z,28.10
2023-02-11T13:27:15.853Z,14.23
2023-02-11T13:28:36.508Z,12.35
2023-02-11T13:30:03.035Z,13.65
2023-02-11T13:31:08.128Z,9.88
2023-02-11T13:32:12.831Z,15.90
2023-02-11T13:33:20.914Z,14.48
2023-02-11T13:34:44.070Z,15.73
2023-02-11T13:35:58.010Z,15.75
2023-02-11T13:36:59.803Z,14.05
2023-02-11T13:38:24.285Z,15.98
2023-02-11T13:39:26.067Z,12.82
2023-02-11T13:40:38.639Z,16.10
2023-02-11T13:41:41.904Z,12.85
2023-02-11T13:42:59.831Z,24.75
2023-02-11T13:44:10.464Z,13.38
2023-02-11T13:45:45.394Z,14.13
2023-02-11T13:46:54.194Z,15.17
2023-02-11T13:48:02.190Z,14.48
2023-02-11T13:49:03.909Z,12.10
2023-02-11T13:50:07.701Z,15.85
2023-02-11T13:51:12.727Z,16.63
2023-02-11T13:52:35.777Z,14.02
2023-02-11T13:53:52.239Z,17.08
2023-02-11T13:54:56.912Z,12.95
2023-02-11T13:56:28.439Z,15.32
2023-02-11T13:57:33.736Z,14.50
2023-02-11T13:58:38.341Z,17.00
2023-02-11T13:59:39.963Z,15.40
2023-02-11T14:00:49.848Z,12.52
2023-02-11T14:01:51.965Z,15.15
2023-02-11T14:03:11.548Z,16.98
2023-02-11T14:04:23.075Z,12.23
2023-02-11T14:05:29.527Z,11.98
2023-02-11T14:06:31.296Z,16.35
2023-02-11T14:07:34.107Z,15.90
2023-02-11T14:08:38.765Z,13.30
2023-02-11T14:09:41.146Z,11.73
2023-02-11T14:10:42.830Z,14.02
2023-02-11T14:11:53.335Z,10.30
2023-02-11T14:13:23.000Z,12.38
2023-02-11T14:14:25.959Z,13.82
2023-02-11T14:15:27.948Z,13.25
2023-02-11T14:16:37.903Z,15.63
2023-02-11T14:17:40.295Z,12.85
2023-02-11T14:18:45.028Z,13.57
2023-02-11T14:19:48.734Z,11.48
2023-02-11T14:20:50.821Z,13.10
2023-02-11T14:21:53.446Z,13.45
2023-02-11T14:22:56.651Z,14.90
2023-02-11T14:24:10.205Z,13.68
2023-02-11T14:25:24.456Z,13.93
2023-02-11T14:26:44.122Z,14.85
2023-02-11T14:28:07.874Z,12.40
2023-02-11T14:29:42.042Z,15.27